RKSO/OSN METAR and TAF weather

Enter ICAO airport designator
Station Type Date Time Source
RKSO METAR 2019/06/27 09:58 UTC NOAA

RKSO 270958Z 29005KT 6SM BR BKN260 27/21 A2951 RMK AO2A SLP996 T02660205 $


Station Type Date Time Source
RKSO Decoded METAR 2019/06/27 09:58 UTC NOAA

Osan Ab, Korea, South (RKSO) 37-06N 127-02E 12M
Jun 27, 2019 - 05:58 AM EDT / 2019.06.27 0958 UTC
Wind: from the WNW (290 degrees) at 6 MPH (5 KT):0
Visibility: 6 mile(s):0
Sky conditions: mostly cloudy
Weather: mist
Temperature: 79.9 F (26.6 C)
Dew Point: 68.9 F (20.5 C)
Relative Humidity: 69%
Pressure (altimeter): 29.51 in. Hg (999 hPa)
ob: RKSO 270958Z 29005KT 6SM BR BKN260 27/21 A2951 RMK AO2A SLP996 T02660205
cycle: 10

Station Type Date Time Source
RKSO TAF 2019/06/27 09:09 UTC NOAA

TAF TAF
AMD RKSO 270958Z 2709/2809 27007KT 9999 SCT020 QNH2949INS
BECMG 2714/2715 VRB03KT 8000 BR SCT020 QNH2955INS
BECMG 2723/2724 18008KT 9999 NSW FEW010 QNH2957INS TX28/2709Z TN20/2720Z

Example: see airport list